Terminal Aerodrome Forecast
Issued by NWS Louisville, KY

Home | Current Version | Previous Version | Text Only | Print | Product List | Glossary On
Versions: 1 2 3 4 5 6 7 8 9 10 11 12 13 14 15 16 17
655
FTUS43 KLMK 191730
TAFLEX
TAF
KLEX 191730Z 1918/2018 22006KT 3SM -RA VCTS BKN045CB
     FM191900 20006KT P6SM VCTS SCT040CB BKN070
     FM192100 20004KT P6SM SCT025 BKN100
     FM200800 VRB03KT 4SM BR SCT030
     FM201000 VRB03KT 2SM BR SCT030
     FM201400 VRB03KT P6SM FEW030 SCT040=

USA.gov is the U.S. government's official web portal to all federal, state and local government web resources and services.